Date,TemperatureHighF,TemperatureAvgF,TemperatureLowF,DewpointHighF,DewpointAvgF,DewpointLowF,HumidityHigh,HumidityAvg,HumidityLow,PressureMaxIn,PressureMinIn,WindSpeedMaxMPH,WindSpeedAvgMPH,GustSpeedMaxMPH,PrecipitationSumIn
2013-11-1,82.0,80.2,78.0,74.0,71.9,70.0,82,75,70,30.02,29.93,14,5,16,0.00
2013-11-2,81.0,79.1,79.0,76.0,69.6,-99.9,89,74,68,29.97,29.87,10,5,10,0.00
2013-11-3,79.0,76.0,72.0,74.0,66.0,59.0,89,71,58,29.99,29.90,30,21,32,0.00
2013-11-4,78.0,76.1,74.0,76.0,67.3,60.0,98,75,54,30.03,29.96,33,26,36,0.00
2013-11-5,81.0,77.8,72.0,77.0,74.9,72.0,98,91,76,30.01,29.93,36,32,39,0.00
2013-11-6,81.0,79.5,78.0,78.0,76.4,74.0,96,90,83,30.03,29.95,31,23,32,0.00
2013-11-7,80.0,77.5,76.0,77.0,75.4,69.0,98,92,71,30.03,29.95,17,11,18,0.00
2013-11-8,80.0,77.5,75.0,77.0,74.7,72.0,98,90,82,30.02,29.93,29,19,30,0.00
2013-11-9,81.0,78.0,76.0,79.0,75.0,-99.9,98,92,79,30.07,29.98,25,20,26,0.00
2013-11-10,81.0,78.3,72.0,79.0,77.6,72.0,99,97,93,30.09,30.01,30,17,32,0.00
2013-11-11,80.0,78.7,77.0,79.0,77.2,76.0,98,95,87,30.08,30.01,28,21,30,0.00
2013-11-12,80.0,78.5,77.0,78.0,77.1,76.0,98,95,89,30.07,29.98,16,13,18,0.00
2013-11-13,78.0,75.2,73.0,76.0,71.5,68.0,97,88,77,30.11,29.99,39,27,43,0.00
2013-11-14,77.0,75.5,74.0,71.0,68.8,67.0,86,79,72,30.15,30.05,38,31,41,0.00
2013-11-15,80.0,77.8,75.0,77.0,72.8,68.0,99,84,72,30.10,29.98,31,25,33,0.00
2013-11-16,81.0,78.6,78.0,78.0,73.5,-99.9,98,86,74,30.07,29.98,31,25,36,0.00
2013-11-17,81.0,80.0,79.0,77.0,74.3,72.0,90,83,72,30.07,30.00,25,18,28,0.00
2013-11-18,81.0,79.6,78.0,76.0,73.9,73.0,90,83,78,30.03,29.94,14,8,15,0.00
2013-11-19,79.0,77.6,76.0,77.0,74.5,71.0,98,90,80,29.97,29.91,9,4,10,0.00
2013-11-20,84.0,78.7,76.0,77.0,74.5,72.0,99,86,75,30.06,29.93,10,4,11,0.00
2013-11-21,81.0,79.5,79.0,76.0,72.6,71.0,90,79,74,30.12,30.05,15,13,17,0.00
2013-11-22,80.0,77.4,73.0,78.0,75.9,73.0,99,94,81,30.12,30.03,25,15,26,0.00
2013-11-23,80.0,77.9,76.0,78.0,73.9,-99.9,99,90,76,30.06,29.97,23,16,25,0.00
2013-11-24,80.0,77.4,74.0,77.0,73.2,68.0,98,87,69,30.09,29.98,31,17,39,0.00
2013-11-25,78.0,75.7,73.0,75.0,73.1,70.0,99,92,81,30.11,30.01,39,-207,43,0.00
2013-11-26,81.0,79.6,78.0,80.0,77.3,74.0,98,92,86,30.01,29.86,0,-999,0,0.00
2013-11-27,81.0,74.5,70.0,79.0,67.6,58.0,98,80,60,30.10,29.84,0,-999,0,0.00
2013-11-28,72.0,64.4,57.0,64.0,59.8,56.0,98,86,71,30.23,30.11,0,-999,0,0.00
2013-11-29,74.0,71.1,67.0,69.0,66.4,63.0,96,85,74,30.21,30.13,0,-999,0,0.00
2013-11-30,75.0,71.4,68.0,73.0,69.5,67.0,98,93,83,30.19,30.09,0,-999,0,0.00